Time;durP1;ratioP1;P1;durP2;ratioP2;P2;SDS_P1;SDS_P2;PMS_P1;PMS_P2;Temp;Humidity;BMP_temperature;BMP_pressure;BME280_temperature;BME280_humidity;BME280_pressure;Samples;Min_cycle;Max_cycle;Signal;HPM_P1;HPM_P2
2023/01/27 00:00:59;;;;;;;106.90;27.85;;;;;;;;;;5009476;28;20124;-67
2023/01/27 00:03:24;;;;;;;103.23;26.07;;;;;;;;;;5009228;28;20097;-67
2023/01/27 00:05:50;;;;;;;97.43;24.33;;;;;;;;;;5007953;28;20285;-67
2023/01/27 00:08:15;;;;;;;99.57;24.60;;;;;;;;;;5008456;28;20284;-67
2023/01/27 00:10:41;;;;;;;95.07;25.33;;;;;;;;;;5005824;28;20074;-68
2023/01/27 00:15:50;;;;;;;82.05;22.85;;;;;;;;;;5008377;28;20449;-67
2023/01/27 00:18:15;;;;;;;88.38;23.58;;;;;;;;;;5009201;28;20025;-67
2023/01/27 00:26:11;;;;;;;77.18;22.73;;;;;;;;;;5000324;28;20036;-67
2023/01/27 00:28:37;;;;;;;78.80;23.25;;;;;;;;;;5007431;28;20018;-67
2023/01/27 00:31:02;;;;;;;91.60;23.63;;;;;;;;;;5009380;28;20017;-67
2023/01/27 00:33:28;;;;;;;79.20;22.83;;;;;;;;;;5007158;28;20478;-67
2023/01/27 00:35:58;;;;;;;85.25;23.40;;;;;;;;;;5007337;28;20033;-67
2023/01/27 00:38:23;;;;;;;92.78;23.77;;;;;;;;;;5006881;28;20045;-67
2023/01/27 00:41:14;;;;;;;68.80;22.20;;;;;;;;;;5007256;28;20397;-67
2023/01/27 00:43:33;;;;;;;81.93;21.02;;;;;;;;;;5007434;28;20030;-69
2023/01/27 00:45:59;;;;;;;81.10;23.98;;;;;;;;;;5008423;28;20029;-69
2023/01/27 00:48:24;;;;;;;72.75;22.00;;;;;;;;;;5009491;28;20430;-70
2023/01/27 00:50:49;;;;;;;73.63;22.83;;;;;;;;;;5007148;28;20045;-69
2023/01/27 00:53:14;;;;;;;88.97;22.80;;;;;;;;;;5009555;28;20478;-69
2023/01/27 00:55:40;;;;;;;69.97;21.20;;;;;;;;;;5007625;28;20283;-69
2023/01/27 00:58:05;;;;;;;85.82;21.40;;;;;;;;;;5007692;28;20382;-69
2023/01/27 01:00:30;;;;;;;72.28;21.77;;;;;;;;;;5008314;28;20478;-69
2023/01/27 01:02:55;;;;;;;64.43;19.45;;;;;;;;;;5008226;28;20026;-69
2023/01/27 01:05:21;;;;;;;75.00;20.20;;;;;;;;;;4990115;28;20025;-69
2023/01/27 01:07:46;;;;;;;64.37;19.20;;;;;;;;;;5009564;28;20097;-69
2023/01/27 01:10:11;;;;;;;67.80;19.50;;;;;;;;;;5005907;28;20288;-69
2023/01/27 01:12:36;;;;;;;56.90;18.03;;;;;;;;;;5009233;28;20025;-69
2023/01/27 01:15:01;;;;;;;62.63;18.97;;;;;;;;;;5007232;28;20332;-69
2023/01/27 01:17:26;;;;;;;57.08;18.52;;;;;;;;;;5009625;28;20596;-68
2023/01/27 01:19:52;;;;;;;53.43;19.03;;;;;;;;;;5007302;28;20029;-69
2023/01/27 01:22:17;;;;;;;65.07;19.20;;;;;;;;;;5009739;28;20342;-69
2023/01/27 01:24:42;;;;;;;71.35;21.17;;;;;;;;;;5005899;28;20367;-68
2023/01/27 01:27:07;;;;;;;61.47;18.57;;;;;;;;;;5012620;28;20026;-68
2023/01/27 01:29:32;;;;;;;52.63;18.27;;;;;;;;;;5010895;28;20277;-68
2023/01/27 01:31:57;;;;;;;67.70;19.23;;;;;;;;;;5011816;28;20383;-68
2023/01/27 01:34:23;;;;;;;49.93;16.23;;;;;;;;;;5010959;28;20280;-69
2023/01/27 01:36:48;;;;;;;51.78;18.25;;;;;;;;;;5011803;28;20283;-68
2023/01/27 01:39:13;;;;;;;42.07;15.73;;;;;;;;;;5010047;28;20105;-68
2023/01/27 01:41:38;;;;;;;43.65;13.88;;;;;;;;;;5010506;28;20273;-68
2023/01/27 01:44:42;;;;;;;44.83;14.18;;;;;;;;;;5011530;28;20089;-69
2023/01/27 01:47:10;;;;;;;39.67;11.55;;;;;;;;;;4951907;28;20475;-69
2023/01/27 01:49:37;;;;;;;36.33;11.27;;;;;;;;;;4951723;28;20062;-68
2023/01/27 01:52:07;;;;;;;37.67;11.73;;;;;;;;;;4976158;28;20038;-68
2023/01/27 01:54:34;;;;;;;47.97;11.83;;;;;;;;;;5008828;28;20017;-68
2023/01/27 01:57:29;;;;;;;38.55;11.98;;;;;;;;;;5012473;28;20018;-69
2023/01/27 01:59:59;;;;;;;29.70;9.57;;;;;;;;;;4995444;28;20041;-69
2023/01/27 02:02:24;;;;;;;;;;;;;;;;;;5011705;28;20379;-69
2023/01/27 02:04:52;;;;;;;29.50;9.10;;;;;;;;;;5008820;28;19916;-69
2023/01/27 02:07:30;;;;;;;29.63;10.13;;;;;;;;;;5008431;28;20079;-68
2023/01/27 02:09:55;;;;;;;39.10;12.05;;;;;;;;;;5010198;28;20022;-69
2023/01/27 02:12:20;;;;;;;28.48;10.07;;;;;;;;;;5012230;28;20029;-69
2023/01/27 02:14:46;;;;;;;28.95;13.65;;;;;;;;;;5010086;28;20088;-68
2023/01/27 02:17:12;;;;;;;31.58;11.75;;;;;;;;;;5011520;28;20364;-68
2023/01/27 02:19:46;;;;;;;30.13;11.00;;;;;;;;;;5007016;28;20129;-68
2023/01/27 02:22:14;;;;;;;35.65;11.98;;;;;;;;;;5006777;28;20017;-68
2023/01/27 02:24:41;;;;;;;36.78;13.18;;;;;;;;;;5009590;28;20478;-68
2023/01/27 02:27:06;;;;;;;33.67;11.88;;;;;;;;;;5010534;28;20021;-69
2023/01/27 02:29:31;;;;;;;31.53;11.03;;;;;;;;;;5010758;28;20041;-68
2023/01/27 02:31:56;;;;;;;28.43;11.07;;;;;;;;;;5011267;28;20825;-68
2023/01/27 02:34:28;;;;;;;34.78;11.52;;;;;;;;;;5008409;28;20280;-68
2023/01/27 02:36:54;;;;;;;23.35;9.82;;;;;;;;;;5010029;28;20029;-69
2023/01/27 02:39:21;;;;;;;25.23;9.70;;;;;;;;;;5009938;28;20544;-68
2023/01/27 02:41:51;;;;;;;26.52;8.93;;;;;;;;;;5007978;28;20055;-69
2023/01/27 02:44:16;;;;;;;23.48;8.65;;;;;;;;;;5012421;28;20045;-69
2023/01/27 02:46:41;;;;;;;24.20;9.02;;;;;;;;;;5008834;28;20022;-68
2023/01/27 02:49:07;;;;;;;18.20;7.88;;;;;;;;;;5007296;28;20026;-68
2023/01/27 02:51:32;;;;;;;21.60;7.93;;;;;;;;;;4993256;28;20508;-68
2023/01/27 02:53:57;;;;;;;18.23;7.27;;;;;;;;;;5006857;28;20093;-68
2023/01/27 02:56:22;;;;;;;19.40;6.30;;;;;;;;;;5011318;28;20907;-69
2023/01/27 02:58:47;;;;;;;15.43;6.50;;;;;;;;;;5010146;28;20033;-69
2023/01/27 03:01:13;;;;;;;14.38;5.43;;;;;;;;;;5009329;28;20029;-68
2023/01/27 03:03:42;;;;;;;11.75;4.93;;;;;;;;;;5007699;28;20006;-68
2023/01/27 03:06:08;;;;;;;9.60;5.00;;;;;;;;;;5003882;28;20414;-68
2023/01/27 03:08:33;;;;;;;13.73;4.63;;;;;;;;;;5010424;28;20080;-68
2023/01/27 03:10:59;;;;;;;13.83;4.87;;;;;;;;;;5010160;28;20353;-68
2023/01/27 03:13:24;;;;;;;7.70;4.37;;;;;;;;;;5009621;28;20277;-69
2023/01/27 03:18:34;;;;;;;12.70;4.57;;;;;;;;;;5009707;28;20028;-68
2023/01/27 03:21:04;;;;;;;8.65;4.18;;;;;;;;;;5008439;28;20018;-68
2023/01/27 03:23:33;;;;;;;8.40;4.03;;;;;;;;;;5008732;28;20475;-68
2023/01/27 03:25:59;;;;;;;6.97;4.00;;;;;;;;;;5005039;28;20116;-69
2023/01/27 03:28:24;;;;;;;9.20;4.28;;;;;;;;;;5004683;28;20116;-68
2023/01/27 03:30:49;;;;;;;11.25;4.35;;;;;;;;;;5007177;28;20097;-68
2023/01/27 03:33:14;;;;;;;12.85;4.90;;;;;;;;;;5008374;28;20113;-69
2023/01/27 03:35:47;;;;;;;9.50;4.28;;;;;;;;;;5008341;28;20040;-68
2023/01/27 03:46:24;;;;;;;10.65;5.07;;;;;;;;;;5005653;28;20125;-68
2023/01/27 03:48:50;;;;;;;9.83;4.73;;;;;;;;;;5009897;28;20132;-69
2023/01/27 03:51:16;;;;;;;10.90;4.60;;;;;;;;;;5012866;28;20283;-68
2023/01/27 03:53:41;;;;;;;11.18;5.10;;;;;;;;;;5009774;28;20030;-68
2023/01/27 03:56:06;;;;;;;13.43;5.40;;;;;;;;;;5008758;28;20498;-68
2023/01/27 03:58:33;;;;;;;15.23;5.35;;;;;;;;;;5007863;28;20087;-68
2023/01/27 04:01:02;;;;;;;15.02;6.25;;;;;;;;;;5008925;28;20117;-68
2023/01/27 04:08:58;;;;;;;10.88;5.57;;;;;;;;;;5009767;28;20120;-68
2023/01/27 04:14:07;;;;;;;14.40;6.35;;;;;;;;;;5009196;28;20057;-69
2023/01/27 04:16:35;;;;;;;13.63;5.97;;;;;;;;;;5008670;28;20138;-68
2023/01/27 04:19:01;;;;;;;13.48;6.20;;;;;;;;;;5008531;28;20024;-68
2023/01/27 04:21:26;;;;;;;17.38;7.28;;;;;;;;;;5006671;28;20100;-68
2023/01/27 04:23:51;;;;;;;20.10;7.45;;;;;;;;;;5006921;28;20383;-68
2023/01/27 04:26:17;;;;;;;15.95;7.72;;;;;;;;;;5008240;28;20024;-69
2023/01/27 04:28:42;;;;;;;16.15;7.13;;;;;;;;;;5005783;28;20036;-68
2023/01/27 04:31:07;;;;;;;16.98;7.97;;;;;;;;;;5003390;28;20104;-69
2023/01/27 04:33:32;;;;;;;18.25;7.38;;;;;;;;;;5006478;28;20026;-68
2023/01/27 04:35:58;;;;;;;19.17;8.00;;;;;;;;;;5012813;23;20077;-69
2023/01/27 04:38:23;;;;;;;19.58;7.18;;;;;;;;;;4995785;28;20038;-68
2023/01/27 04:40:48;;;;;;;18.17;8.17;;;;;;;;;;5001708;28;20044;-66
2023/01/27 04:43:13;;;;;;;19.93;7.13;;;;;;;;;;5007955;28;20356;-68
2023/01/27 04:45:38;;;;;;;21.48;8.15;;;;;;;;;;4990585;28;20272;-67
2023/01/27 04:48:05;;;;;;;23.43;8.07;;;;;;;;;;5007192;28;20022;-68
2023/01/27 04:50:30;;;;;;;22.60;9.07;;;;;;;;;;5007880;28;20265;-68
2023/01/27 04:52:55;;;;;;;22.42;8.10;;;;;;;;;;5006161;28;20021;-68
2023/01/27 04:55:20;;;;;;;20.10;8.63;;;;;;;;;;5007837;28;20029;-68
2023/01/27 04:57:46;;;;;;;18.67;7.75;;;;;;;;;;5005576;28;20637;-68
2023/01/27 05:00:11;;;;;;;23.08;8.18;;;;;;;;;;5006496;28;20466;-68
2023/01/27 05:02:36;;;;;;;22.08;8.80;;;;;;;;;;5010569;28;20092;-69
2023/01/27 05:05:04;;;;;;;19.70;8.30;;;;;;;;;;5009789;28;20018;-68
2023/01/27 05:07:30;;;;;;;16.55;8.00;;;;;;;;;;5012337;28;20257;-69
2023/01/27 05:09:55;;;;;;;17.48;7.72;;;;;;;;;;5011674;28;20036;-69
2023/01/27 05:12:20;;;;;;;20.10;8.43;;;;;;;;;;5011999;28;20026;-68
2023/01/27 05:14:45;;;;;;;22.58;9.13;;;;;;;;;;5008446;28;20458;-69
2023/01/27 05:17:11;;;;;;;17.15;7.32;;;;;;;;;;5008248;28;20022;-68
2023/01/27 05:19:36;;;;;;;21.53;8.60;;;;;;;;;;5010892;28;20027;-69
2023/01/27 05:22:01;;;;;;;17.30;8.05;;;;;;;;;;5006402;28;20261;-68
2023/01/27 05:24:26;;;;;;;21.67;8.67;;;;;;;;;;5010504;28;20485;-68
2023/01/27 05:26:52;;;;;;;20.35;8.07;;;;;;;;;;5008080;28;20269;-69
2023/01/27 05:29:18;;;;;;;15.65;7.72;;;;;;;;;;5009249;28;20509;-69
2023/01/27 05:31:43;;;;;;;21.17;8.32;;;;;;;;;;5008240;28;20026;-68
2023/01/27 05:34:08;;;;;;;17.40;8.50;;;;;;;;;;5010418;28;20030;-69
2023/01/27 05:36:33;;;;;;;19.88;8.57;;;;;;;;;;5009450;28;20303;-69
2023/01/27 05:38:59;;;;;;;20.23;8.45;;;;;;;;;;5011400;28;20440;-68
2023/01/27 05:41:24;;;;;;;20.67;9.85;;;;;;;;;;5011349;28;20504;-69
2023/01/27 05:43:54;;;;;;;17.50;9.25;;;;;;;;;;5010358;28;20081;-70
2023/01/27 05:46:20;;;;;;;23.90;10.07;;;;;;;;;;5008924;28;20018;-69
2023/01/27 05:48:46;;;;;;;21.23;9.90;;;;;;;;;;5007238;28;20026;-68
2023/01/27 05:51:13;;;;;;;26.63;10.43;;;;;;;;;;5004474;28;20029;-69
2023/01/27 05:53:38;;;;;;;19.23;10.65;;;;;;;;;;4987455;28;20465;-68
2023/01/27 05:56:04;;;;;;;23.23;11.40;;;;;;;;;;4999786;28;20021;-69
2023/01/27 05:58:30;;;;;;;19.98;9.30;;;;;;;;;;5004407;28;20108;-68
2023/01/27 06:00:55;;;;;;;17.92;9.38;;;;;;;;;;5002760;28;20379;-70
2023/01/27 06:03:20;;;;;;;20.63;9.57;;;;;;;;;;5002384;28;20032;-70
2023/01/27 06:05:53;;;;;;;20.75;9.52;;;;;;;;;;5007047;28;20079;-70
2023/01/27 06:08:19;;;;;;;22.45;9.52;;;;;;;;;;4997866;28;20022;-68
2023/01/27 06:10:44;;;;;;;22.77;9.40;;;;;;;;;;4981381;28;20036;-70
2023/01/27 06:13:09;;;;;;;21.67;10.35;;;;;;;;;;5004444;28;20130;-70
2023/01/27 06:15:34;;;;;;;23.40;9.95;;;;;;;;;;4987783;28;20096;-70
2023/01/27 06:17:59;;;;;;;19.40;9.63;;;;;;;;;;5003606;28;20034;-70
2023/01/27 06:20:24;;;;;;;23.70;9.65;;;;;;;;;;5003344;28;20428;-67
2023/01/27 06:22:50;;;;;;;18.08;8.75;;;;;;;;;;5006329;28;20033;-68
2023/01/27 06:25:15;;;;;;;20.08;9.07;;;;;;;;;;5001096;28;20118;-67
2023/01/27 06:27:40;;;;;;;20.92;8.52;;;;;;;;;;5005671;28;20520;-68
2023/01/27 06:30:06;;;;;;;23.13;9.77;;;;;;;;;;4999921;28;20044;-68
2023/01/27 06:32:31;;;;;;;18.88;9.00;;;;;;;;;;5007143;28;20131;-68
2023/01/27 06:34:56;;;;;;;18.40;8.40;;;;;;;;;;4990146;28;20034;-69
2023/01/27 06:37:21;;;;;;;21.83;10.25;;;;;;;;;;5005709;28;20276;-68
2023/01/27 06:39:46;;;;;;;23.83;9.13;;;;;;;;;;5005098;28;20033;-69
2023/01/27 06:42:11;;;;;;;18.50;8.73;;;;;;;;;;4999186;28;20629;-68
2023/01/27 06:44:37;;;;;;;20.97;8.97;;;;;;;;;;5005816;28;20276;-69
2023/01/27 06:47:02;;;;;;;18.88;8.90;;;;;;;;;;5005868;28;20610;-69
2023/01/27 06:49:27;;;;;;;21.73;9.45;;;;;;;;;;5006154;28;20119;-69
2023/01/27 06:51:52;;;;;;;20.98;8.77;;;;;;;;;;5003751;28;20018;-68
2023/01/27 06:54:18;;;;;;;24.13;11.35;;;;;;;;;;4998092;28;20022;-68
2023/01/27 06:56:43;;;;;;;20.90;8.80;;;;;;;;;;5003011;28;20358;-69
2023/01/27 06:59:08;;;;;;;19.95;9.88;;;;;;;;;;4990360;28;20399;-69
2023/01/27 07:01:34;;;;;;;25.60;10.80;;;;;;;;;;5010643;28;20033;-69
2023/01/27 07:04:00;;;;;;;21.85;10.00;;;;;;;;;;5007292;28;20022;-69
2023/01/27 07:06:25;;;;;;;19.08;8.75;;;;;;;;;;5007764;28;20092;-68
2023/01/27 07:08:50;;;;;;;19.48;9.35;;;;;;;;;;5010854;28;20035;-69
2023/01/27 07:11:15;;;;;;;17.85;8.68;;;;;;;;;;5003971;28;20100;-69
2023/01/27 07:13:40;;;;;;;36.10;14.20;;;;;;;;;;5009467;28;20034;-68
2023/01/27 07:16:06;;;;;;;28.07;12.43;;;;;;;;;;5007911;28;20018;-69
2023/01/27 07:18:31;;;;;;;22.45;9.48;;;;;;;;;;5007381;28;20633;-68
2023/01/27 07:20:56;;;;;;;17.27;8.87;;;;;;;;;;5007879;28;20186;-68
2023/01/27 07:23:21;;;;;;;18.17;8.52;;;;;;;;;;5006660;28;20288;-66
2023/01/27 07:25:46;;;;;;;16.43;8.30;;;;;;;;;;5005227;28;20064;-69
2023/01/27 07:28:11;;;;;;;19.55;8.95;;;;;;;;;;5008077;28;20403;-68
2023/01/27 07:30:38;;;;;;;19.17;8.80;;;;;;;;;;5003924;28;20033;-68
2023/01/27 07:33:03;;;;;;;20.90;8.38;;;;;;;;;;5009330;28;20138;-69
2023/01/27 07:35:29;;;;;;;17.67;7.88;;;;;;;;;;5002904;28;20030;-69
2023/01/27 07:37:55;;;;;;;14.97;8.27;;;;;;;;;;5005375;28;20030;-68
2023/01/27 07:40:20;;;;;;;14.48;7.35;;;;;;;;;;5003140;28;20339;-68
2023/01/27 07:42:45;;;;;;;13.77;6.68;;;;;;;;;;5007216;28;20375;-68
2023/01/27 07:45:11;;;;;;;17.13;7.77;;;;;;;;;;5008309;28;20026;-68
2023/01/27 07:47:36;;;;;;;20.65;8.07;;;;;;;;;;5010790;28;20359;-68
2023/01/27 07:50:01;;;;;;;18.92;8.07;;;;;;;;;;5006249;28;20032;-68
2023/01/27 07:52:26;;;;;;;15.73;7.78;;;;;;;;;;5008963;28;20033;-68
2023/01/27 07:54:51;;;;;;;18.05;8.23;;;;;;;;;;5006120;28;20037;-68
2023/01/27 07:57:16;;;;;;;16.80;7.38;;;;;;;;;;5003207;28;20022;-71
2023/01/27 07:59:42;;;;;;;19.63;9.30;;;;;;;;;;5004372;28;20534;-70
2023/01/27 08:02:08;;;;;;;17.63;9.20;;;;;;;;;;5007148;28;20268;-69
2023/01/27 08:04:33;;;;;;;19.38;9.25;;;;;;;;;;5003793;28;20457;-69
2023/01/27 08:06:59;;;;;;;14.17;7.73;;;;;;;;;;5004480;28;20382;-69
2023/01/27 08:09:24;;;;;;;18.42;8.07;;;;;;;;;;5008236;28;20313;-70
2023/01/27 08:11:49;;;;;;;14.82;7.95;;;;;;;;;;5006303;28;20037;-70
2023/01/27 08:14:14;;;;;;;16.30;7.22;;;;;;;;;;5008174;28;20459;-68
2023/01/27 08:16:39;;;;;;;12.73;6.65;;;;;;;;;;5011937;28;20691;-69
2023/01/27 08:19:04;;;;;;;14.68;6.57;;;;;;;;;;5005496;28;20022;-67
2023/01/27 08:21:31;;;;;;;11.80;6.45;;;;;;;;;;5004637;28;20030;-70
2023/01/27 08:23:57;;;;;;;12.60;7.13;;;;;;;;;;5007799;28;20509;-69
2023/01/27 08:26:23;;;;;;;10.25;5.88;;;;;;;;;;5005986;28;20249;-69
2023/01/27 08:28:48;;;;;;;11.38;5.70;;;;;;;;;;5007212;28;20018;-69
2023/01/27 08:31:14;;;;;;;12.90;5.73;;;;;;;;;;5007573;28;20018;-68
2023/01/27 08:33:40;;;;;;;11.45;6.38;;;;;;;;;;5007295;28;20403;-69
2023/01/27 08:36:10;;;;;;;11.23;6.10;;;;;;;;;;5007529;28;20021;-67
2023/01/27 08:38:36;;;;;;;12.30;5.60;;;;;;;;;;5006058;28;20010;-68
2023/01/27 08:41:05;;;;;;;10.00;5.57;;;;;;;;;;5004198;28;20944;-69
2023/01/27 08:43:30;;;;;;;15.45;5.20;;;;;;;;;;5008487;28;20097;-69
2023/01/27 08:45:56;;;;;;;9.48;4.47;;;;;;;;;;5006684;28;20109;-70
2023/01/27 08:48:22;;;;;;;8.85;5.07;;;;;;;;;;5005115;28;20642;-69
2023/01/27 08:50:47;;;;;;;9.00;4.43;;;;;;;;;;5009247;28;20026;-71
2023/01/27 08:53:12;;;;;;;7.70;3.90;;;;;;;;;;5004712;28;20030;-69
2023/01/27 08:55:37;;;;;;;8.68;4.47;;;;;;;;;;5006674;28;20026;-70
2023/01/27 08:58:02;;;;;;;7.38;4.03;;;;;;;;;;5005724;28;20022;-69
2023/01/27 09:00:28;;;;;;;5.53;3.27;;;;;;;;;;5005219;28;20450;-70
2023/01/27 09:02:53;;;;;;;5.72;2.83;;;;;;;;;;5004828;28;20273;-69
2023/01/27 09:05:19;;;;;;;6.55;3.53;;;;;;;;;;5006940;28;20133;-68
2023/01/27 09:07:45;;;;;;;5.68;3.20;;;;;;;;;;5007989;28;20010;-70
2023/01/27 09:10:10;;;;;;;5.60;2.75;;;;;;;;;;5008365;28;20049;-70
2023/01/27 09:12:36;;;;;;;3.92;2.80;;;;;;;;;;5004381;28;20129;-69
2023/01/27 09:15:01;;;;;;;4.63;2.38;;;;;;;;;;5004459;28;20030;-69
2023/01/27 09:17:26;;;;;;;4.72;2.60;;;;;;;;;;5004813;28;20095;-68
2023/01/27 09:19:51;;;;;;;4.32;2.65;;;;;;;;;;5005890;28;20060;-70
2023/01/27 09:22:16;;;;;;;4.28;2.30;;;;;;;;;;5003798;28;20120;-70
2023/01/27 09:24:42;;;;;;;3.97;2.47;;;;;;;;;;5003228;28;20030;-70
2023/01/27 09:27:07;;;;;;;3.93;2.57;;;;;;;;;;5007914;28;20097;-70
2023/01/27 09:29:32;;;;;;;3.45;2.45;;;;;;;;;;5002921;28;20335;-70
2023/01/27 09:31:57;;;;;;;3.63;2.33;;;;;;;;;;5007266;28;20026;-70
2023/01/27 09:34:23;;;;;;;3.73;2.43;;;;;;;;;;5005280;28;20037;-71
2023/01/27 09:36:58;;;;;;;4.15;2.85;;;;;;;;;;5005826;28;20753;-70
2023/01/27 09:39:24;;;;;;;3.72;2.47;;;;;;;;;;5005285;28;20475;-70
2023/01/27 09:41:52;;;;;;;5.68;2.72;;;;;;;;;;5005684;28;20064;-69
2023/01/27 09:44:33;;;;;;;3.97;2.55;;;;;;;;;;4991768;28;20490;-68
2023/01/27 09:47:08;;;;;;;6.25;2.67;;;;;;;;;;5008528;28;20021;-68
2023/01/27 09:50:01;;;;;;;3.50;2.40;;;;;;;;;;5009943;28;20013;-70
2023/01/27 09:52:42;;;;;;;6.60;2.67;;;;;;;;;;5006992;28;20030;-67
2023/01/27 09:55:08;;;;;;;6.35;2.70;;;;;;;;;;5007121;28;20036;-70
2023/01/27 09:57:33;;;;;;;4.03;2.53;;;;;;;;;;5006526;28;20024;-67
2023/01/27 09:59:58;;;;;;;3.45;2.28;;;;;;;;;;5011914;28;20030;-70
2023/01/27 10:02:44;;;;;;;9.27;3.10;;;;;;;;;;5007375;28;20276;-68
2023/01/27 10:05:22;;;;;;;5.90;3.47;;;;;;;;;;5010317;28;20273;-69
2023/01/27 10:08:03;;;;;;;5.45;3.28;;;;;;;;;;5008900;28;20018;-70
2023/01/27 10:10:34;;;;;;;4.60;3.10;;;;;;;;;;5006397;28;20051;-67
2023/01/27 10:13:05;;;;;;;4.15;2.80;;;;;;;;;;5011527;28;20065;-69
2023/01/27 10:15:49;;;;;;;6.25;3.20;;;;;;;;;;5007911;28;20022;-68
2023/01/27 10:18:23;;;;;;;9.05;3.38;;;;;;;;;;4993450;28;20030;-69
2023/01/27 10:21:02;;;;;;;7.57;3.28;;;;;;;;;;5007531;28;20108;-67
2023/01/27 10:23:43;;;;;;;7.18;3.03;;;;;;;;;;5011077;28;20386;-67
2023/01/27 10:26:23;;;;;;;4.68;3.00;;;;;;;;;;5004212;28;20017;-67
2023/01/27 10:28:48;;;;;;;;;;;;;;;;;;5004886;28;20022;-69
2023/01/27 10:31:25;;;;;;;6.03;3.70;;;;;;;;;;5004387;28;19917;-68
2023/01/27 10:33:54;;;;;;;4.80;3.50;;;;;;;;;;5006200;28;20355;-67
2023/01/27 10:36:27;;;;;;;5.53;3.53;;;;;;;;;;5021625;22;20417;-68
2023/01/27 10:39:11;;;;;;;4.97;3.30;;;;;;;;;;4991470;28;20014;-69
2023/01/27 10:41:36;;;;;;;5.25;3.33;;;;;;;;;;4994925;28;20046;-69
2023/01/27 10:44:17;;;;;;;7.63;2.70;;;;;;;;;;4995111;28;20430;-68
2023/01/27 10:46:45;;;;;;;2.92;2.17;;;;;;;;;;4995059;28;20038;-68
2023/01/27 10:49:15;;;;;;;3.75;2.80;;;;;;;;;;4995789;28;20023;-68
2023/01/27 10:51:42;;;;;;;4.88;2.60;;;;;;;;;;4994504;28;20025;-68
2023/01/27 10:54:10;;;;;;;4.57;2.70;;;;;;;;;;4993810;28;20058;-68
2023/01/27 10:56:55;;;;;;;3.08;2.15;;;;;;;;;;4996518;28;20032;-68
2023/01/27 10:59:36;;;;;;;8.32;2.92;;;;;;;;;;4994498;28;20034;-68
2023/01/27 11:02:23;;;;;;;4.60;2.80;;;;;;;;;;4996186;28;20065;-69
2023/01/27 11:04:53;;;;;;;5.75;2.60;;;;;;;;;;4994823;28;20018;-69
2023/01/27 11:07:19;;;;;;;4.25;2.28;;;;;;;;;;4995417;28;20025;-69
2023/01/27 11:09:47;;;;;;;3.45;1.92;;;;;;;;;;4992039;28;20474;-69
2023/01/27 11:12:14;;;;;;;2.42;1.63;;;;;;;;;;4992676;28;20026;-69
2023/01/27 11:14:49;;;;;;;1.80;1.45;;;;;;;;;;4990607;28;20018;-69
2023/01/27 11:17:14;;;;;;;7.00;1.88;;;;;;;;;;4992137;28;20370;-69
2023/01/27 11:19:45;;;;;;;2.03;1.23;;;;;;;;;;4992558;28;20026;-70
2023/01/27 11:22:19;;;;;;;2.05;1.40;;;;;;;;;;4991752;28;20612;-69
2023/01/27 11:24:46;;;;;;;3.60;1.80;;;;;;;;;;4994652;28;20022;-69
2023/01/27 11:27:32;;;;;;;2.63;1.20;;;;;;;;;;4991321;28;20091;-69
2023/01/27 11:30:01;;;;;;;1.88;1.40;;;;;;;;;;4992108;28;20064;-69
2023/01/27 11:32:29;;;;;;;8.40;1.25;;;;;;;;;;4993086;28;20418;-69
2023/01/27 11:35:07;;;;;;;2.63;1.00;;;;;;;;;;4993021;28;20022;-69
2023/01/27 11:37:44;;;;;;;1.80;0.80;;;;;;;;;;4988750;28;20034;-69
2023/01/27 11:40:32;;;;;;;1.60;1.00;;;;;;;;;;4992323;28;20030;-70
2023/01/27 11:42:58;;;;;;;0.77;0.70;;;;;;;;;;4981329;28;20049;-69
2023/01/27 11:45:24;;;;;;;1.40;0.98;;;;;;;;;;4994348;28;20015;-69
2023/01/27 11:48:10;;;;;;;4.18;1.50;;;;;;;;;;4992077;28;20096;-69
2023/01/27 11:50:35;;;;;;;1.25;1.00;;;;;;;;;;4994060;28;20026;-69
2023/01/27 11:53:11;;;;;;;1.40;1.02;;;;;;;;;;4989270;28;20577;-69
2023/01/27 11:55:41;;;;;;;1.60;1.02;;;;;;;;;;4990258;28;20033;-70
2023/01/27 11:58:12;;;;;;;3.42;1.00;;;;;;;;;;4987910;28;20106;-70
2023/01/27 12:00:41;;;;;;;1.20;0.90;;;;;;;;;;4996753;28;20030;-69
2023/01/27 12:03:12;;;;;;;2.17;1.02;;;;;;;;;;4991424;28;20102;-70
2023/01/27 12:05:41;;;;;;;1.70;0.82;;;;;;;;;;4989653;28;20027;-69
2023/01/27 12:08:06;;;;;;;1.80;0.85;;;;;;;;;;4994858;28;20477;-69
2023/01/27 12:10:33;;;;;;;1.52;0.88;;;;;;;;;;4992475;28;20061;-69
2023/01/27 12:13:13;;;;;;;1.80;1.02;;;;;;;;;;4996136;28;20029;-68
2023/01/27 12:15:46;;;;;;;1.45;1.00;;;;;;;;;;4993017;28;20022;-70
2023/01/27 12:18:13;;;;;;;1.10;0.75;;;;;;;;;;4995049;28;20491;-70
2023/01/27 12:20:41;;;;;;;1.15;0.70;;;;;;;;;;4992721;28;20026;-69
2023/01/27 12:23:30;;;;;;;1.38;0.75;;;;;;;;;;4991808;28;20026;-69
2023/01/27 12:26:00;;;;;;;4.00;1.00;;;;;;;;;;4989661;28;20053;-69
2023/01/27 12:28:25;;;;;;;4.60;1.05;;;;;;;;;;4995522;28;20055;-70
2023/01/27 12:30:51;;;;;;;2.13;0.95;;;;;;;;;;4989778;28;20030;-70
2023/01/27 12:33:22;;;;;;;2.00;0.70;;;;;;;;;;4991084;28;20025;-70
2023/01/27 12:35:48;;;;;;;2.67;0.93;;;;;;;;;;4990781;28;20425;-70
2023/01/27 12:38:18;;;;;;;3.15;1.48;;;;;;;;;;4991059;28;20117;-70
2023/01/27 12:40:45;;;;;;;5.30;1.25;;;;;;;;;;4991646;28;20026;-70
2023/01/27 12:43:14;;;;;;;2.85;1.30;;;;;;;;;;4991009;28;20114;-70
2023/01/27 12:45:40;;;;;;;1.48;1.10;;;;;;;;;;4990301;28;20033;-69
2023/01/27 12:48:08;;;;;;;2.10;1.30;;;;;;;;;;4987709;28;20027;-69
2023/01/27 12:51:00;;;;;;;1.85;1.20;;;;;;;;;;4992084;28;21882;-69
2023/01/27 12:53:26;;;;;;;2.40;1.55;;;;;;;;;;4966742;28;20046;-69
2023/01/27 12:55:57;;;;;;;5.88;1.73;;;;;;;;;;4988712;28;20033;-70
2023/01/27 12:58:34;;;;;;;2.97;1.27;;;;;;;;;;4988452;28;20026;-69
2023/01/27 13:01:04;;;;;;;4.57;1.50;;;;;;;;;;4989391;28;20673;-68
2023/01/27 13:03:30;;;;;;;4.03;1.30;;;;;;;;;;4989866;28;20014;-68
2023/01/27 13:05:57;;;;;;;3.25;1.67;;;;;;;;;;4993370;28;20028;-68
2023/01/27 13:08:23;;;;;;;3.72;1.70;;;;;;;;;;4987660;28;20032;-68
2023/01/27 13:10:50;;;;;;;3.33;1.77;;;;;;;;;;4990084;28;20026;-68
2023/01/27 13:13:18;;;;;;;2.70;1.38;;;;;;;;;;4992998;28;20371;-68
2023/01/27 13:15:50;;;;;;;1.98;1.40;;;;;;;;;;4989107;28;20017;-68
2023/01/27 13:18:20;;;;;;;2.72;1.40;;;;;;;;;;4972388;28;20112;-68
2023/01/27 13:20:50;;;;;;;3.10;1.67;;;;;;;;;;4995797;28;20069;-68
2023/01/27 13:23:21;;;;;;;1.88;1.48;;;;;;;;;;4993164;28;20447;-67
2023/01/27 13:25:56;;;;;;;2.88;1.85;;;;;;;;;;4994184;28;20018;-68
2023/01/27 13:28:30;;;;;;;2.72;1.75;;;;;;;;;;4997662;28;20026;-68
2023/01/27 13:31:01;;;;;;;4.63;2.15;;;;;;;;;;4992042;28;20524;-68
2023/01/27 13:33:39;;;;;;;3.05;2.03;;;;;;;;;;4992277;28;20030;-68
2023/01/27 13:36:05;;;;;;;4.13;1.88;;;;;;;;;;4987125;28;20436;-68
2023/01/27 13:38:37;;;;;;;3.50;1.58;;;;;;;;;;4988800;28;20029;-68
2023/01/27 13:41:06;;;;;;;8.77;1.90;;;;;;;;;;4991762;28;20030;-68
2023/01/27 13:43:33;;;;;;;3.00;1.83;;;;;;;;;;4992351;28;20076;-68
2023/01/27 13:45:58;;;;;;;3.28;1.88;;;;;;;;;;4993453;28;20036;-68
2023/01/27 13:48:35;;;;;;;8.30;2.15;;;;;;;;;;4993918;28;20029;-68
2023/01/27 13:51:08;;;;;;;5.88;2.35;;;;;;;;;;4992030;28;20288;-68
2023/01/27 13:53:33;;;;;;;18.65;4.95;;;;;;;;;;4988654;28;20033;-68
2023/01/27 13:56:04;;;;;;;4.55;2.60;;;;;;;;;;4997659;28;20018;-68
2023/01/27 13:58:32;;;;;;;3.45;1.90;;;;;;;;;;4993585;28;20434;-68
2023/01/27 14:00:57;;;;;;;6.60;2.20;;;;;;;;;;4990712;28;20022;-68
2023/01/27 14:03:50;;;;;;;5.70;2.53;;;;;;;;;;4985170;28;20051;-69
2023/01/27 14:06:24;;;;;;;6.82;3.40;;;;;;;;;;4988427;28;20037;-69
2023/01/27 14:08:57;;;;;;;11.82;5.00;;;;;;;;;;4987490;28;20021;-69
2023/01/27 14:11:34;;;;;;;29.30;6.93;;;;;;;;;;4990569;28;20018;-69
2023/01/27 14:14:09;;;;;;;7.10;2.80;;;;;;;;;;4992572;28;20038;-69
2023/01/27 14:16:34;;;;;;;4.82;2.22;;;;;;;;;;4991341;28;20014;-68
2023/01/27 14:19:06;;;;;;;4.40;2.80;;;;;;;;;;4993874;28;20968;-68
2023/01/27 14:21:38;;;;;;;4.00;1.95;;;;;;;;;;4993953;28;20298;-68
2023/01/27 14:24:14;;;;;;;4.78;2.13;;;;;;;;;;4990635;28;20415;-68
2023/01/27 14:26:49;;;;;;;2.92;1.98;;;;;;;;;;4990683;28;20061;-68
2023/01/27 14:29:14;;;;;;;7.47;2.95;;;;;;;;;;4973849;28;20030;-68
2023/01/27 14:31:46;;;;;;;5.40;2.47;;;;;;;;;;4991365;28;20383;-69
2023/01/27 14:34:29;;;;;;;7.15;2.75;;;;;;;;;;4996727;28;20269;-68
2023/01/27 14:36:56;;;;;;;7.05;2.05;;;;;;;;;;4986643;28;20720;-68
2023/01/27 14:39:33;;;;;;;3.47;2.05;;;;;;;;;;4989212;28;20488;-68
2023/01/27 14:42:06;;;;;;;5.22;2.70;;;;;;;;;;4991780;28;20375;-68
2023/01/27 14:44:38;;;;;;;5.95;2.17;;;;;;;;;;4992351;28;20023;-68
2023/01/27 14:47:22;;;;;;;3.65;2.28;;;;;;;;;;4990172;28;20022;-69
2023/01/27 14:49:50;;;;;;;4.93;2.03;;;;;;;;;;4992786;28;20017;-69
2023/01/27 14:52:22;;;;;;;2.33;1.33;;;;;;;;;;4994034;28;20030;-69
2023/01/27 14:55:02;;;;;;;2.80;1.77;;;;;;;;;;4994088;28;20390;-69
2023/01/27 14:57:30;;;;;;;6.40;1.90;;;;;;;;;;4994569;28;20026;-69
2023/01/27 15:00:04;;;;;;;2.47;1.65;;;;;;;;;;4992349;28;20098;-69
2023/01/27 15:02:47;;;;;;;2.25;1.40;;;;;;;;;;4992594;28;21191;-69
2023/01/27 15:05:27;;;;;;;3.65;1.52;;;;;;;;;;4985960;28;20022;-68
2023/01/27 15:08:09;;;;;;;4.40;1.60;;;;;;;;;;4990180;28;20014;-69